Time;durP1;ratioP1;P1;durP2;ratioP2;P2;SDS_P1;SDS_P2;PMS_P1;PMS_P2;Temp;Humidity;BMP_temperature;BMP_pressure;BME280_temperature;BME280_humidity;BME280_pressure;Samples;Min_cycle;Max_cycle;Signal;HPM_P1;HPM_P2
2023/04/29 00:01:06;;;;;;;15.98;14.32;;;;;;;13.87;53.18;99847.88;4970894;28;97539;-78
2023/04/29 00:03:31;;;;;;;16.30;14.70;;;;;;;13.87;53.56;99849.66;4960108;28;97594;-78
2023/04/29 00:05:58;;;;;;;15.30;13.88;;;;;;;13.88;53.42;99843.47;4971184;28;97458;-77
2023/04/29 00:08:24;;;;;;;20.00;14.77;;;;;;;13.79;53.52;99829.00;4938127;28;97374;-77
2023/04/29 00:10:49;;;;;;;15.63;13.77;;;;;;;13.87;53.32;99839.97;4955067;28;96820;-78
2023/04/29 00:13:16;;;;;;;14.73;13.35;;;;;;;13.96;52.76;99823.66;4953617;28;100773;-78
2023/04/29 00:15:42;;;;;;;16.20;13.40;;;;;;;14.00;53.23;99838.34;4955023;28;97904;-78
2023/04/29 00:18:08;;;;;;;16.73;14.57;;;;;;;13.91;53.13;99828.31;4937593;28;97005;-78
2023/04/29 00:20:34;;;;;;;14.65;13.35;;;;;;;13.89;52.72;99824.06;4952063;28;97690;-77
2023/04/29 00:22:59;;;;;;;14.75;13.20;;;;;;;13.90;52.99;99829.22;4967618;28;101686;-78
2023/04/29 00:25:25;;;;;;;17.17;14.40;;;;;;;13.96;52.84;99830.69;4953348;28;101258;-78
2023/04/29 00:27:50;;;;;;;15.75;14.07;;;;;;;13.85;52.88;99820.75;4937537;28;96783;-78
2023/04/29 00:30:16;;;;;;;15.98;13.90;;;;;;;13.96;52.95;99830.69;4950311;28;97310;-78
2023/04/29 00:32:43;;;;;;;14.57;13.18;;;;;;;14.05;52.67;99827.56;4971918;28;99333;-78
2023/04/29 00:35:09;;;;;;;15.48;13.90;;;;;;;14.04;52.47;99824.03;4953532;28;98448;-79
2023/04/29 00:37:35;;;;;;;16.23;14.60;;;;;;;13.98;53.09;99818.25;4971418;28;97741;-77
2023/04/29 00:40:01;;;;;;;19.20;14.93;;;;;;;13.96;52.97;99820.13;4955507;28;97078;-77
2023/04/29 00:42:27;;;;;;;19.13;14.30;;;;;;;13.94;53.07;99807.03;4953514;28;101258;-77
2023/04/29 00:44:52;;;;;;;15.57;14.05;;;;;;;14.04;52.88;99820.56;4936849;28;101129;-78
2023/04/29 00:47:18;;;;;;;15.45;13.90;;;;;;;14.13;52.81;99812.13;4952196;28;96754;-77
2023/04/29 00:49:44;;;;;;;16.55;13.32;;;;;;;14.13;52.65;99812.13;4938142;28;97629;-78
2023/04/29 00:52:11;;;;;;;17.40;14.20;;;;;;;14.20;52.37;99810.00;4953214;28;101603;-78
2023/04/29 00:54:37;;;;;;;16.30;14.50;;;;;;;14.19;52.51;99805.63;4953273;28;100923;-78
2023/04/29 00:57:05;;;;;;;15.35;13.85;;;;;;;14.23;52.38;99815.09;4954022;28;97104;-79
2023/04/29 00:59:31;;;;;;;15.73;14.20;;;;;;;14.32;52.09;99811.94;4953651;28;97253;-78
2023/04/29 01:02:03;;;;;;;15.95;14.35;;;;;;;14.35;52.39;99809.13;4937663;28;101082;-78
2023/04/29 01:04:30;;;;;;;16.80;15.25;;;;;;;14.29;52.01;99814.75;4943459;28;101307;-78
2023/04/29 01:07:03;;;;;;;16.30;14.73;;;;;;;14.19;52.57;99814.41;4954995;28;97220;-77
2023/04/29 01:09:47;;;;;;;16.58;15.00;;;;;;;14.25;52.60;99810.56;4931481;28;97304;-78
2023/04/29 01:12:33;;;;;;;15.60;14.05;;;;;;;14.24;52.33;99788.59;4952928;28;101615;-77
2023/04/29 01:15:21;;;;;;;16.45;14.85;;;;;;;14.29;52.44;99798.06;4922963;28;101601;-77
2023/04/29 01:17:50;;;;;;;17.30;15.48;;;;;;;14.22;52.72;99810.75;4954304;28;97159;-78
2023/04/29 01:20:18;;;;;;;15.30;13.57;;;;;;;14.20;52.65;99797.66;4937811;28;96862;-78
2023/04/29 01:22:43;;;;;;;17.50;15.82;;;;;;;14.20;52.90;99808.22;4970403;28;97963;-78
2023/04/29 01:25:09;;;;;;;17.10;15.10;;;;;;;14.21;53.21;99811.69;4948875;28;99912;-78
2023/04/29 01:28:03;;;;;;;18.70;16.73;;;;;;;14.14;53.57;99798.00;4954193;28;97333;-78
2023/04/29 01:30:49;;;;;;;17.40;15.57;;;;;;;14.12;53.85;99801.66;4953147;28;97523;-78
2023/04/29 01:33:33;;;;;;;18.75;16.98;;;;;;;14.08;53.94;99805.41;4951774;28;101546;-78
2023/04/29 01:36:12;;;;;;;17.90;15.90;;;;;;;14.11;53.64;99802.56;4966159;28;101326;-78
2023/04/29 01:38:57;;;;;;;18.58;16.77;;;;;;;14.07;53.60;99799.28;4953109;28;96887;-77
2023/04/29 01:41:43;;;;;;;18.20;15.63;;;;;;;14.11;53.86;99813.13;4943665;28;97380;-78
2023/04/29 01:44:16;;;;;;;17.95;16.13;;;;;;;14.04;53.88;99813.50;4952742;28;101251;-78
2023/04/29 01:46:43;;;;;;;17.63;15.80;;;;;;;13.94;54.22;99807.03;4934888;28;101426;-78
2023/04/29 01:49:08;;;;;;;16.17;14.77;;;;;;;13.97;54.11;99800.75;4943171;28;96824;-78
2023/04/29 01:51:34;;;;;;;16.95;15.45;;;;;;;14.02;54.44;99809.22;4933297;28;96963;-78
2023/04/29 01:54:00;;;;;;;17.85;16.13;;;;;;;13.98;54.07;99810.34;4936369;28;102078;-77
2023/04/29 01:56:26;;;;;;;17.52;15.90;;;;;;;13.93;54.50;99801.84;4949320;28;101349;-77
2023/04/29 01:59:01;;;;;;;18.15;16.42;;;;;;;13.97;54.40;99814.78;4928175;28;97233;-79
2023/04/29 02:01:42;;;;;;;18.67;16.77;;;;;;;13.87;54.45;99791.63;4951858;28;97170;-78
2023/04/29 02:04:08;;;;;;;18.35;16.65;;;;;;;13.81;54.69;99806.00;4973464;28;101357;-78
2023/04/29 02:06:34;;;;;;;19.20;17.40;;;;;;;13.89;54.42;99805.59;4958001;28;101675;-78
2023/04/29 02:26:26;;;;;;;17.98;16.27;;;;;;;13.71;54.89;99802.19;4851303;22;103471;-77
2023/04/29 02:28:56;;;;;;;20.13;17.20;;;;;;;13.60;55.23;99786.94;4914310;28;101811;-78
2023/04/29 02:31:21;;;;;;;18.00;16.13;;;;;;;13.67;55.21;99792.72;4904027;28;101139;-77
2023/04/29 02:33:47;;;;;;;18.98;17.00;;;;;;;13.74;54.99;99789.69;4943505;28;97292;-77
2023/04/29 02:36:13;;;;;;;18.88;16.38;;;;;;;13.72;54.44;99781.00;4909730;28;96965;-77
2023/04/29 02:38:38;;;;;;;18.17;16.35;;;;;;;13.66;55.06;99794.53;4919277;28;101849;-77
2023/04/29 03:03:31;;;;;;;19.02;17.23;;;;;;;13.62;54.76;99774.53;5086366;22;103317;-79
2023/04/29 03:05:56;;;;;;;19.90;15.38;;;;;;;13.64;54.99;99782.34;4887645;28;101461;-77
2023/04/29 03:08:22;;;;;;;18.13;16.13;;;;;;;13.58;55.16;99767.72;4892085;28;102173;-77
2023/04/29 03:10:48;;;;;;;17.08;15.48;;;;;;;13.59;55.04;99769.44;4917871;28;97162;-77
2023/04/29 03:13:13;;;;;;;17.17;15.60;;;;;;;13.48;55.24;99746.28;4900995;28;97131;-77
2023/04/29 03:15:39;;;;;;;18.20;16.45;;;;;;;13.65;54.93;99758.53;4892904;28;101237;-78
2023/04/29 03:18:05;;;;;;;17.88;15.90;;;;;;;13.62;55.14;99763.16;4905691;28;101430;-78
2023/04/29 03:20:32;;;;;;;18.52;16.35;;;;;;;13.51;54.94;99750.53;4891262;28;99168;-77
2023/04/29 03:23:01;;;;;;;17.17;15.38;;;;;;;13.64;55.08;99767.38;4901399;28;97446;-78
2023/04/29 03:25:27;;;;;;;17.45;15.63;;;;;;;13.67;54.87;99763.72;4909432;28;101413;-77
2023/04/29 03:27:53;;;;;;;17.10;15.60;;;;;;;13.56;54.96;99764.34;4900143;28;101066;-78
2023/04/29 03:30:18;;;;;;;17.10;15.68;;;;;;;13.58;55.01;99759.81;4904924;28;96763;-77
2023/04/29 03:32:48;;;;;;;19.15;15.98;;;;;;;13.55;54.60;99752.06;4903859;28;96876;-77
2023/04/29 03:35:14;;;;;;;16.00;14.65;;;;;;;13.58;54.99;99751.91;4900686;28;101278;-77
2023/04/29 03:38:02;;;;;;;19.65;15.25;;;;;;;13.55;55.26;99752.91;4917373;28;99209;-78
2023/04/29 03:40:31;;;;;;;17.70;15.82;;;;;;;13.46;55.29;99753.41;4900692;28;97408;-78
2023/04/29 03:42:57;;;;;;;17.20;15.68;;;;;;;13.51;54.96;99753.19;4881359;28;97276;-77
2023/04/29 03:45:23;;;;;;;16.20;14.65;;;;;;;13.52;55.61;99746.97;4896541;28;101339;-77
2023/04/29 03:47:49;;;;;;;15.35;13.95;;;;;;;13.36;55.52;99723.25;4906660;28;101622;-78
2023/04/29 03:50:15;;;;;;;16.70;15.18;;;;;;;13.45;55.32;99753.53;4902256;28;97650;-78
2023/04/29 03:52:41;;;;;;;16.05;14.40;;;;;;;13.28;55.91;99739.47;4911166;28;97457;-78
2023/04/29 03:55:12;;;;;;;17.70;15.40;;;;;;;13.23;55.91;99736.19;4894058;28;100997;-77
2023/04/29 03:57:39;;;;;;;17.02;15.52;;;;;;;13.26;56.36;99745.75;4894639;28;102275;-79
2023/04/29 04:00:05;;;;;;;16.63;14.98;;;;;;;13.19;56.69;99741.72;4893673;28;97299;-79
2023/04/29 04:02:38;;;;;;;15.93;14.63;;;;;;;13.18;56.48;99751.41;4905404;28;97538;-78
2023/04/29 04:05:05;;;;;;;15.98;14.48;;;;;;;13.06;56.52;99737.13;4886797;28;101564;-78
2023/04/29 04:07:30;;;;;;;18.35;15.85;;;;;;;13.17;56.99;99768.16;4903287;28;101270;-77
2023/04/29 04:10:14;;;;;;;17.40;15.63;;;;;;;13.24;56.95;99772.16;4904607;28;97150;-78
2023/04/29 04:12:40;;;;;;;15.63;14.05;;;;;;;13.05;57.20;99766.16;4911735;28;97512;-78
2023/04/29 04:15:06;;;;;;;16.27;14.85;;;;;;;13.13;56.88;99779.78;4916763;28;102195;-78
2023/04/29 04:17:32;;;;;;;19.70;14.80;;;;;;;13.16;56.96;99776.16;4930791;28;101473;-78
2023/04/29 04:19:57;;;;;;;17.60;15.70;;;;;;;13.19;56.78;99766.28;4905999;28;97223;-78
2023/04/29 04:22:23;;;;;;;17.25;15.55;;;;;;;13.25;56.68;99771.25;4908107;28;97195;-77
2023/04/29 04:25:07;;;;;;;17.88;16.33;;;;;;;13.24;56.57;99766.06;4897176;28;101589;-78
2023/04/29 04:27:33;;;;;;;18.70;15.95;;;;;;;13.07;57.24;99756.41;4904591;28;101337;-77
2023/04/29 04:30:02;;;;;;;20.33;15.82;;;;;;;12.97;57.42;99749.91;4907731;28;96749;-78
2023/04/29 04:32:30;;;;;;;17.42;15.73;;;;;;;13.04;57.64;99767.97;4904290;28;97344;-78
2023/04/29 04:34:56;;;;;;;16.42;15.02;;;;;;;13.09;57.65;99771.22;4903027;28;101872;-78
2023/04/29 04:37:22;;;;;;;17.35;15.60;;;;;;;13.16;57.65;99760.34;4918530;28;101715;-77
2023/04/29 04:39:51;;;;;;;20.38;16.33;;;;;;;13.25;57.23;99750.19;4904667;28;97060;-77
2023/04/29 04:42:17;;;;;;;18.55;16.52;;;;;;;13.25;56.78;99739.63;4902477;28;97348;-78
2023/04/29 04:44:45;;;;;;;17.98;16.23;;;;;;;13.31;56.86;99736.66;4898798;28;101191;-77
2023/04/29 04:47:17;;;;;;;17.63;15.93;;;;;;;13.59;56.72;99754.47;4904383;28;101270;-78
2023/04/29 04:49:56;;;;;;;16.77;15.40;;;;;;;13.67;56.69;99746.13;4911535;28;97750;-78
2023/04/29 04:52:21;;;;;;;17.98;16.45;;;;;;;13.81;56.99;99745.34;4915359;28;97315;-78
2023/04/29 04:54:55;;;;;;;16.42;15.02;;;;;;;13.98;56.05;99755.78;4913956;28;101777;-77
2023/04/29 04:57:24;;;;;;;17.33;15.63;;;;;;;13.91;55.89;99722.78;4912199;28;101900;-78
2023/04/29 04:59:50;;;;;;;17.30;15.70;;;;;;;13.99;56.15;99751.34;4909620;28;97720;-78
2023/04/29 05:02:16;;;;;;;17.10;15.70;;;;;;;13.90;56.44;99751.88;4907982;28;97332;-78
2023/04/29 05:04:42;;;;;;;17.20;15.48;;;;;;;13.85;56.31;99746.03;4908987;28;101371;-78
2023/04/29 05:07:08;;;;;;;17.42;15.93;;;;;;;13.82;56.33;99754.97;4901182;28;101752;-79
2023/04/29 05:09:53;;;;;;;17.60;16.00;;;;;;;13.77;56.76;99755.22;4892870;28;97478;-78
2023/04/29 05:12:20;;;;;;;17.52;16.10;;;;;;;13.85;56.55;99760.06;4887194;28;96938;-78
2023/04/29 05:14:45;;;;;;;18.42;16.77;;;;;;;13.87;56.39;99758.19;4898112;28;98421;-78
2023/04/29 05:17:12;;;;;;;17.30;15.80;;;;;;;13.90;56.87;99765.91;4907629;28;101186;-78
2023/04/29 05:19:37;;;;;;;17.77;16.08;;;;;;;13.79;56.93;99758.63;4897628;28;97244;-78
2023/04/29 05:22:03;;;;;;;17.50;15.68;;;;;;;13.84;56.84;99757.50;4905790;28;97386;-77
2023/04/29 05:24:29;;;;;;;24.30;17.38;;;;;;;13.81;57.11;99743.53;4895544;28;101323;-78
2023/04/29 05:26:54;;;;;;;18.45;16.75;;;;;;;13.93;57.39;99749.06;4896393;28;99085;-78
2023/04/29 05:29:20;;;;;;;16.88;15.43;;;;;;;14.03;56.67;99752.91;4906132;28;96819;-78
2023/04/29 05:31:51;;;;;;;18.70;17.00;;;;;;;13.90;57.15;99728.97;4881073;28;97265;-78
2023/04/29 05:34:16;;;;;;;16.90;15.50;;;;;;;14.10;56.72;99753.38;4888056;28;101842;-78
2023/04/29 05:36:42;;;;;;;17.27;15.70;;;;;;;14.17;56.96;99760.88;4902116;28;101374;-78
2023/04/29 05:39:08;;;;;;;18.45;16.40;;;;;;;14.21;57.21;99754.47;4902363;28;96957;-78
2023/04/29 05:41:33;;;;;;;18.65;16.05;;;;;;;14.33;57.74;99757.34;4898331;28;97721;-78
2023/04/29 05:44:17;;;;;;;18.25;16.35;;;;;;;14.40;57.81;99762.19;4896647;28;96871;-78
2023/04/29 05:46:47;;;;;;;17.08;15.38;;;;;;;14.57;57.97;99769.13;4883164;28;101819;-79
2023/04/29 05:49:13;;;;;;;17.60;15.65;;;;;;;14.61;57.98;99770.66;4893476;28;97085;-78
2023/04/29 05:51:38;;;;;;;17.30;15.50;;;;;;;14.73;57.90;99768.22;4914122;28;97154;-80
2023/04/29 05:54:04;;;;;;;18.58;16.98;;;;;;;14.71;57.50;99760.38;4904982;28;100758;-78
2023/04/29 05:56:30;;;;;;;18.45;16.67;;;;;;;14.60;57.61;99747.84;4888041;28;101631;-78
2023/04/29 05:58:55;;;;;;;17.25;15.65;;;;;;;14.79;57.53;99765.22;4897231;28;97299;-79
2023/04/29 06:01:22;;;;;;;17.27;15.68;;;;;;;14.80;57.76;99775.66;4905651;28;97259;-78
2023/04/29 06:03:47;;;;;;;17.58;15.85;;;;;;;14.65;57.86;99772.16;4881978;28;101449;-79
2023/04/29 06:06:33;;;;;;;18.15;16.63;;;;;;;14.60;57.67;99774.25;4927054;28;97879;-78
2023/04/29 06:09:16;;;;;;;18.45;16.65;;;;;;;14.73;57.64;99781.44;4922915;28;97426;-78
2023/04/29 06:11:43;;;;;;;19.05;17.23;;;;;;;14.75;57.00;99777.75;4935726;28;97167;-78
2023/04/29 06:14:09;;;;;;;16.27;14.85;;;;;;;14.74;56.81;99777.84;4928115;28;101734;-78
2023/04/29 06:16:35;;;;;;;17.45;15.43;;;;;;;14.82;57.01;99781.72;4933178;28;101182;-78
2023/04/29 06:19:00;;;;;;;17.20;15.32;;;;;;;14.67;56.79;99767.63;4931180;28;97226;-78
2023/04/29 06:21:27;;;;;;;17.05;15.57;;;;;;;14.74;56.93;99775.19;4924144;28;97382;-78
2023/04/29 06:23:53;;;;;;;17.55;16.15;;;;;;;14.73;57.15;99774.34;4923187;28;101428;-78
2023/04/29 06:26:20;;;;;;;17.63;16.23;;;;;;;14.60;57.63;99781.28;4927222;28;101378;-77
2023/04/29 06:28:46;;;;;;;18.42;16.60;;;;;;;14.47;57.72;99775.84;4923633;28;97332;-79
2023/04/29 06:31:12;;;;;;;19.48;17.23;;;;;;;14.48;57.80;99782.84;4925896;28;97184;-79
2023/04/29 06:33:38;;;;;;;18.95;16.48;;;;;;;14.40;58.44;99787.75;4947551;28;101344;-78
2023/04/29 06:36:04;;;;;;;17.50;15.70;;;;;;;14.53;58.16;99795.81;4906491;28;101190;-79
2023/04/29 06:39:08;;;;;;;18.65;16.77;;;;;;;14.53;58.24;99796.66;4810550;29;96970;-78
2023/04/29 06:42:09;;;;;;;17.27;15.95;;;;;;;14.45;58.85;99788.28;4809453;29;97494;-78
2023/04/29 06:44:44;;;;;;;17.80;16.10;;;;;;;14.21;59.32;99770.31;4895615;28;101606;-78
2023/04/29 06:47:39;;;;;;;18.88;16.83;;;;;;;14.45;58.67;99796.22;4910471;28;97434;-79
2023/04/29 06:50:23;;;;;;;18.77;17.08;;;;;;;14.36;59.43;99787.03;4952606;28;97442;-79
2023/04/29 06:52:49;;;;;;;18.25;16.38;;;;;;;14.46;59.05;99792.66;4960674;28;97222;-79
2023/04/29 06:55:14;;;;;;;16.80;15.32;;;;;;;14.49;59.05;99789.84;4929033;28;101188;-78
2023/04/29 06:57:41;;;;;;;17.00;15.50;;;;;;;14.54;59.42;99792.22;4945236;28;100791;-79
2023/04/29 07:00:07;;;;;;;16.50;14.95;;;;;;;14.54;59.18;99793.06;4916145;28;96829;-79
2023/04/29 07:02:33;;;;;;;16.55;15.07;;;;;;;14.45;59.44;99783.00;4928252;28;97070;-78
2023/04/29 07:04:59;;;;;;;16.38;14.88;;;;;;;14.53;59.12;99785.25;4902070;28;101559;-79
2023/04/29 07:07:24;;;;;;;16.77;15.38;;;;;;;14.64;59.16;99798.69;4882153;28;101621;-78
2023/04/29 07:09:52;;;;;;;17.08;15.40;;;;;;;14.64;59.71;99796.88;4893655;28;97362;-78
2023/04/29 07:12:19;;;;;;;16.65;15.20;;;;;;;14.71;59.95;99794.72;4890824;28;97562;-78
2023/04/29 07:14:44;;;;;;;17.40;15.63;;;;;;;14.74;60.53;99805.09;4897898;28;100859;-78
2023/04/29 07:17:11;;;;;;;17.98;16.40;;;;;;;14.69;60.82;99788.69;4897923;28;101397;-78
2023/04/29 07:19:37;;;;;;;17.75;15.98;;;;;;;14.80;61.38;99799.44;4907868;28;97208;-79
2023/04/29 07:22:03;;;;;;;17.15;15.75;;;;;;;14.78;61.62;99801.34;4905325;28;97121;-79
2023/04/29 07:24:29;;;;;;;17.52;15.88;;;;;;;14.78;61.86;99800.50;4898108;28;101856;-79
2023/04/29 07:26:56;;;;;;;17.90;16.27;;;;;;;14.72;61.80;99785.88;4878536;28;101240;-79
2023/04/29 07:29:21;;;;;;;17.10;15.52;;;;;;;14.68;62.05;99771.97;4895396;28;97424;-78
2023/04/29 07:31:47;;;;;;;16.77;15.38;;;;;;;14.70;62.18;99782.47;4880496;28;97211;-79
2023/04/29 07:34:12;;;;;;;16.27;15.05;;;;;;;14.72;62.63;99791.16;4877963;28;101547;-79
2023/04/29 07:36:38;;;;;;;17.42;15.73;;;;;;;14.81;63.06;99795.03;4898462;28;98395;-76
2023/04/29 07:39:04;;;;;;;18.02;16.42;;;;;;;14.84;63.11;99800.97;4895201;28;96809;-78
2023/04/29 07:41:30;;;;;;;17.27;15.88;;;;;;;14.81;63.29;99795.03;4895805;28;96878;-76
2023/04/29 07:43:56;;;;;;;18.52;16.80;;;;;;;14.80;63.92;99798.59;4896733;28;101405;-78
2023/04/29 07:46:22;;;;;;;18.70;16.98;;;;;;;14.76;64.42;99797.09;4890143;28;101246;-78
2023/04/29 07:48:48;;;;;;;21.10;19.33;;;;;;;14.79;64.47;99803.03;4895286;28;97222;-81
2023/04/29 07:51:14;;;;;;;17.35;15.98;;;;;;;14.87;64.16;99802.59;4898808;28;98209;-78
2023/04/29 07:53:41;;;;;;;16.95;15.45;;;;;;;14.79;64.04;99791.63;4902933;28;101473;-77
2023/04/29 07:56:07;;;;;;;17.65;16.08;;;;;;;14.88;64.23;99805.13;4896638;28;101688;-77
2023/04/29 07:58:33;;;;;;;16.23;14.93;;;;;;;14.96;64.08;99809.13;4899551;28;96839;-77
2023/04/29 08:01:09;;;;;;;17.38;16.08;;;;;;;14.89;64.23;99798.94;4899611;28;97561;-77
2023/04/29 08:03:35;;;;;;;17.02;15.52;;;;;;;14.92;64.19;99803.16;4887058;28;102078;-75
2023/04/29 08:06:03;;;;;;;16.33;15.02;;;;;;;14.90;64.34;99790.03;4904600;28;101527;-77
2023/04/29 08:08:30;;;;;;;16.48;15.07;;;;;;;15.01;64.94;99805.25;4895180;28;96910;-84
2023/04/29 08:10:55;;;;;;;15.98;14.57;;;;;;;15.04;64.93;99804.19;4904941;28;97262;-77
2023/04/29 08:13:21;;;;;;;15.07;13.93;;;;;;;15.07;65.27;99804.03;4916861;28;101174;-77
2023/04/29 08:15:46;;;;;;;15.48;13.95;;;;;;;14.98;65.15;99788.72;4905277;28;98153;-76
2023/04/29 08:18:14;;;;;;;16.48;15.00;;;;;;;15.06;65.03;99804.97;4914600;28;96799;-78
2023/04/29 08:20:39;;;;;;;15.00;13.80;;;;;;;15.06;65.20;99805.81;4910057;28;97331;-79
2023/04/29 08:23:05;;;;;;;15.50;14.30;;;;;;;15.07;65.37;99814.63;4927577;28;101424;-82
2023/04/29 08:25:30;;;;;;;15.50;14.18;;;;;;;14.99;65.16;99807.13;4915769;28;100634;-81
2023/04/29 08:27:56;;;;;;;15.15;13.95;;;;;;;14.96;65.50;99802.03;4923504;28;97317;-85
2023/04/29 08:30:22;;;;;;;14.68;13.57;;;;;;;15.07;65.34;99817.25;4943954;28;96934;-79
2023/04/29 08:32:47;;;;;;;14.27;13.13;;;;;;;15.15;65.25;99826.44;4924489;28;98997;-82
2023/04/29 08:35:13;;;;;;;13.98;12.85;;;;;;;15.20;65.61;99822.63;4920889;28;97333;-76
2023/04/29 08:37:38;;;;;;;15.15;13.95;;;;;;;15.19;65.37;99829.72;4899040;28;96758;-76
2023/04/29 08:40:04;;;;;;;16.23;14.93;;;;;;;15.20;65.45;99820.84;4915552;28;98102;-77
2023/04/29 08:42:35;;;;;;;15.98;14.68;;;;;;;15.24;65.61;99821.50;4909506;28;101076;-76
2023/04/29 08:45:02;;;;;;;16.45;15.00;;;;;;;15.20;65.88;99830.56;4912671;28;101261;-76
2023/04/29 08:47:31;;;;;;;17.48;15.88;;;;;;;15.19;65.47;99829.72;4918015;28;97837;-76
2023/04/29 08:50:02;;;;;;;15.95;14.65;;;;;;;15.11;65.76;99816.13;4929781;28;96934;-76
2023/04/29 08:52:29;;;;;;;16.95;15.40;;;;;;;15.23;65.81;99839.16;4902457;28;97903;-77
2023/04/29 08:54:55;;;;;;;17.25;15.85;;;;;;;15.24;66.29;99838.22;4913163;28;101999;-76
2023/04/29 08:57:22;;;;;;;17.13;15.70;;;;;;;15.33;66.07;99844.72;4903649;28;97111;-75
2023/04/29 08:59:48;;;;;;;16.90;15.50;;;;;;;15.32;66.31;99843.03;4934321;28;96842;-75
2023/04/29 09:02:16;;;;;;;16.90;15.57;;;;;;;15.40;66.38;99841.63;4910016;28;97854;-75
2023/04/29 09:05:07;;;;;;;16.85;15.55;;;;;;;15.47;66.26;99847.38;4913191;28;97404;-79
2023/04/29 09:07:34;;;;;;;17.33;15.85;;;;;;;15.42;66.16;99830.97;4883155;28;97122;-78
2023/04/29 09:10:01;;;;;;;17.08;15.57;;;;;;;15.57;66.47;99847.66;4906609;28;97250;-78
2023/04/29 09:12:26;;;;;;;16.98;15.43;;;;;;;15.57;66.41;99845.03;4907066;28;98626;-79
2023/04/29 09:14:52;;;;;;;18.10;16.38;;;;;;;15.66;66.60;99854.19;4903290;28;97940;-75
2023/04/29 09:17:17;;;;;;;18.40;16.83;;;;;;;15.67;66.31;99843.50;4921875;28;96739;-77
2023/04/29 09:19:43;;;;;;;17.55;16.10;;;;;;;15.69;66.85;99860.16;4896073;28;97094;-76
2023/04/29 09:22:09;;;;;;;17.35;15.85;;;;;;;15.67;66.81;99854.06;4895726;28;101651;-77
2023/04/29 09:24:36;;;;;;;20.55;18.67;;;;;;;15.63;66.55;99848.13;4907552;28;97443;-78
2023/04/29 09:27:03;;;;;;;18.70;17.10;;;;;;;15.65;66.85;99855.09;4912318;28;97332;-77
2023/04/29 09:29:30;;;;;;;19.02;17.25;;;;;;;15.65;66.86;99852.47;4894572;28;97001;-78
2023/04/29 09:31:57;;;;;;;20.05;18.00;;;;;;;15.53;66.54;99836.44;4892901;28;101191;-79
2023/04/29 09:34:38;;;;;;;20.10;17.55;;;;;;;15.63;66.86;99850.78;4897381;28;100962;-81
2023/04/29 09:37:22;;;;;;;19.08;17.67;;;;;;;15.64;66.86;99851.63;4889313;28;97433;-81
2023/04/29 09:39:48;;;;;;;18.25;16.52;;;;;;;15.71;66.43;99860.09;4884717;28;97357;-78
2023/04/29 09:42:13;;;;;;;16.67;15.38;;;;;;;15.76;66.21;99850.88;4895814;28;101730;-82
2023/04/29 09:44:41;;;;;;;16.25;14.95;;;;;;;15.84;65.77;99847.75;4880438;28;101672;-76
2023/04/29 09:47:08;;;;;;;14.57;13.50;;;;;;;15.92;65.05;99852.56;4896327;28;96784;-75
2023/04/29 09:49:41;;;;;;;14.40;13.30;;;;;;;15.92;64.14;99850.78;4912987;28;97455;-78
2023/04/29 09:52:09;;;;;;;14.85;13.68;;;;;;;15.91;63.71;99842.91;4889716;28;98663;-79
2023/04/29 09:54:37;;;;;;;13.38;12.40;;;;;;;16.05;63.29;99853.47;4880089;28;97470;-79
2023/04/29 09:57:04;;;;;;;13.18;12.18;;;;;;;16.09;63.48;99855.00;4864222;28;98096;-79
2023/04/29 09:59:31;;;;;;;14.43;13.43;;;;;;;16.05;63.30;99861.41;4880308;28;97077;-82
2023/04/29 10:01:57;;;;;;;13.82;12.82;;;;;;;15.98;63.14;99863.63;4889604;28;97700;-79
2023/04/29 10:04:25;;;;;;;13.60;12.48;;;;;;;15.98;62.91;99852.19;4876784;28;101654;-80
2023/04/29 10:06:55;;;;;;;13.95;12.88;;;;;;;16.04;63.03;99860.56;4905550;28;98043;-80
2023/04/29 10:09:22;;;;;;;13.02;12.23;;;;;;;16.07;62.81;99860.38;4907948;28;97474;-80
2023/04/29 10:11:52;;;;;;;12.40;11.40;;;;;;;16.17;62.43;99857.97;4913859;28;97710;-80
2023/04/29 10:14:20;;;;;;;13.23;12.32;;;;;;;16.22;61.94;99845.28;4912137;28;102668;-81
2023/04/29 10:16:48;;;;;;;13.93;12.55;;;;;;;16.46;61.82;99858.75;4919586;28;97225;-80
2023/04/29 10:19:22;;;;;;;15.25;13.95;;;;;;;16.71;61.66;99862.41;4911713;28;97201;-83
2023/04/29 10:21:48;;;;;;;13.88;12.82;;;;;;;16.79;60.73;99856.66;4918938;28;99738;-82
2023/04/29 10:24:16;;;;;;;13.38;12.45;;;;;;;17.03;60.90;99865.59;4917022;28;100960;-78
2023/04/29 10:26:43;;;;;;;13.40;12.50;;;;;;;17.19;60.30;99860.94;4913069;28;97099;-76
2023/04/29 10:29:10;;;;;;;13.63;12.50;;;;;;;17.37;60.25;99863.28;4921072;28;98533;-78
2023/04/29 10:31:36;;;;;;;13.15;12.10;;;;;;;17.50;59.73;99850.00;4925317;28;101308;-78
2023/04/29 10:34:02;;;;;;;14.02;12.82;;;;;;;17.59;59.92;99855.50;4912858;28;101086;-79
2023/04/29 10:36:30;;;;;;;14.15;12.68;;;;;;;17.71;59.59;99843.16;4914829;28;96824;-78
2023/04/29 10:39:02;;;;;;;13.27;12.27;;;;;;;17.72;59.02;99826.28;4905963;28;97069;-78
2023/04/29 10:41:36;;;;;;;14.00;12.80;;;;;;;17.74;58.00;99826.16;4946562;28;97501;-77
2023/04/29 10:44:03;;;;;;;13.35;12.25;;;;;;;17.80;58.09;99833.72;4931816;28;97574;-77
2023/04/29 10:46:28;;;;;;;13.02;11.93;;;;;;;17.72;57.34;99826.28;4931476;28;97671;-78
2023/04/29 10:49:07;;;;;;;13.75;12.82;;;;;;;17.79;56.71;99838.19;4914817;28;97506;-77
2023/04/29 10:51:38;;;;;;;13.75;12.85;;;;;;;17.83;57.15;99828.19;4904879;28;101563;-78
2023/04/29 10:54:17;;;;;;;13.57;12.67;;;;;;;17.91;57.27;99833.81;4903862;28;101319;-77
2023/04/29 10:56:49;;;;;;;13.27;12.38;;;;;;;17.85;56.52;99807.69;4911223;28;96875;-78
2023/04/29 10:59:21;;;;;;;13.02;11.93;;;;;;;18.10;55.86;99833.34;4919764;28;97360;-83
2023/04/29 11:01:49;;;;;;;13.52;12.73;;;;;;;18.23;55.91;99826.16;4933879;28;101633;-82
2023/04/29 11:04:15;;;;;;;13.07;12.27;;;;;;;18.30;55.29;99824.75;4927190;28;101370;-82
2023/04/29 11:06:44;;;;;;;14.93;13.75;;;;;;;18.38;55.97;99826.81;4921220;28;97382;-83
2023/04/29 11:09:13;;;;;;;13.75;12.85;;;;;;;18.40;55.51;99822.25;4940765;28;96873;-81
2023/04/29 11:11:53;;;;;;;12.75;11.85;;;;;;;18.43;55.14;99815.84;4935792;28;97897;-81
2023/04/29 11:14:37;;;;;;;13.75;12.75;;;;;;;18.59;55.26;99821.72;4909941;28;99551;-81
2023/04/29 11:17:07;;;;;;;12.27;11.48;;;;;;;18.62;55.12;99816.19;4928530;28;98546;-79
2023/04/29 11:19:35;;;;;;;12.02;11.23;;;;;;;18.55;54.06;99810.47;4908948;28;97216;-82
2023/04/29 11:22:17;;;;;;;12.75;11.93;;;;;;;18.58;54.07;99813.84;4886215;28;101563;-80
2023/04/29 11:24:52;;;;;;;12.80;12.00;;;;;;;18.62;53.52;99816.19;4954448;28;101505;-80
2023/04/29 11:27:19;;;;;;;12.85;12.05;;;;;;;18.60;53.66;99818.09;4925662;28;96826;-79
2023/04/29 11:29:46;;;;;;;12.93;12.02;;;;;;;18.40;53.56;99794.81;4943073;28;97340;-80
2023/04/29 11:32:12;;;;;;;12.40;11.50;;;;;;;18.45;54.38;99813.94;4924491;28;101165;-81
2023/04/29 11:34:37;;;;;;;11.73;11.02;;;;;;;18.42;54.21;99825.66;4933376;28;97910;-78
2023/04/29 11:37:04;;;;;;;11.90;11.20;;;;;;;18.26;53.54;99799.34;4905998;28;96795;-78
2023/04/29 11:39:33;;;;;;;11.38;10.68;;;;;;;18.42;53.55;99824.81;4927897;28;97216;-76
2023/04/29 11:42:06;;;;;;;12.07;11.32;;;;;;;18.41;53.36;99817.78;4925351;28;97650;-80
2023/04/29 11:44:36;;;;;;;12.25;11.35;;;;;;;18.48;53.94;99822.53;4909319;28;99869;-78
2023/04/29 11:47:03;;;;;;;11.93;11.02;;;;;;;18.53;54.11;99832.81;4905090;28;97418;-84
2023/04/29 11:49:33;;;;;;;12.68;11.55;;;;;;;18.60;53.69;99827.88;4914432;28;97251;-75
2023/04/29 11:51:59;;;;;;;13.52;12.45;;;;;;;18.65;53.46;99825.75;4914329;28;98118;-81
2023/04/29 11:54:28;;;;;;;13.65;12.75;;;;;;;18.64;53.44;99829.34;4891433;28;102085;-77
2023/04/29 11:56:54;;;;;;;12.65;11.85;;;;;;;18.63;53.39;99830.31;4902649;28;97466;-78
2023/04/29 11:59:21;;;;;;;12.80;12.00;;;;;;;18.53;53.63;99827.50;4902740;28;96948;-78
2023/04/29 12:01:48;;;;;;;13.57;12.48;;;;;;;18.46;54.06;99826.25;4931270;28;101797;-77